sensor_id;sensor_type;location;lat;lon;timestamp;pressure;altitude;pressure_sealevel;temperature;humidity
30730;BME280;17476;48.458;7.928;2023-06-14T00:01:52;99354.81;;;18.99;42.04
30730;BME280;17476;48.458;7.928;2023-06-14T00:04:18;99355.25;;;18.96;41.63
30730;BME280;17476;48.458;7.928;2023-06-14T00:06:46;99353.66;;;19.06;41.93
30730;BME280;17476;48.458;7.928;2023-06-14T00:09:12;99348.91;;;19.20;41.67
30730;BME280;17476;48.458;7.928;2023-06-14T00:11:40;99339.75;;;19.28;41.64
30730;BME280;17476;48.458;7.928;2023-06-14T00:14:07;99349.66;;;19.44;41.11
30730;BME280;17476;48.458;7.928;2023-06-14T00:16:33;99349.53;;;19.39;41.04
30730;BME280;17476;48.458;7.928;2023-06-14T00:19:01;99348.25;;;19.42;41.09
30730;BME280;17476;48.458;7.928;2023-06-14T00:21:30;99335.81;;;19.42;40.75
30730;BME280;17476;48.458;7.928;2023-06-14T00:23:57;99338.22;;;19.44;40.75
30730;BME280;17476;48.458;7.928;2023-06-14T00:26:23;99339.50;;;19.41;40.67
30730;BME280;17476;48.458;7.928;2023-06-14T00:28:49;99342.25;;;19.06;41.38
30730;BME280;17476;48.458;7.928;2023-06-14T00:31:15;99341.94;;;18.79;42.01
30730;BME280;17476;48.458;7.928;2023-06-14T00:33:41;99336.41;;;18.69;42.19
30730;BME280;17476;48.458;7.928;2023-06-14T00:36:07;99340.22;;;18.73;41.84
30730;BME280;17476;48.458;7.928;2023-06-14T00:38:33;99338.78;;;18.47;42.28
30730;BME280;17476;48.458;7.928;2023-06-14T00:40:58;99341.63;;;18.22;42.99
30730;BME280;17476;48.458;7.928;2023-06-14T00:43:24;99342.88;;;18.08;43.44
30730;BME280;17476;48.458;7.928;2023-06-14T00:45:50;99338.16;;;17.98;43.58
30730;BME280;17476;48.458;7.928;2023-06-14T00:48:17;99340.00;;;17.97;43.76
30730;BME280;17476;48.458;7.928;2023-06-14T00:50:44;99334.22;;;18.00;43.43
30730;BME280;17476;48.458;7.928;2023-06-14T00:53:12;99337.38;;;18.21;43.34
30730;BME280;17476;48.458;7.928;2023-06-14T00:55:41;99338.28;;;18.15;43.10
30730;BME280;17476;48.458;7.928;2023-06-14T00:58:08;99342.25;;;17.94;43.81
30730;BME280;17476;48.458;7.928;2023-06-14T01:00:34;99345.38;;;17.91;44.06
30730;BME280;17476;48.458;7.928;2023-06-14T01:03:00;99343.41;;;17.86;44.42
30730;BME280;17476;48.458;7.928;2023-06-14T01:05:27;99345.94;;;17.93;44.39
30730;BME280;17476;48.458;7.928;2023-06-14T01:08:25;99347.34;;;18.07;43.70
30730;BME280;17476;48.458;7.928;2023-06-14T01:11:05;99343.72;;;18.20;43.60
30730;BME280;17476;48.458;7.928;2023-06-14T01:13:38;99341.59;;;17.98;44.01
30730;BME280;17476;48.458;7.928;2023-06-14T01:16:06;99358.69;;;17.84;43.93
30730;BME280;17476;48.458;7.928;2023-06-14T01:18:32;99358.78;;;17.78;44.04
30730;BME280;17476;48.458;7.928;2023-06-14T01:20:59;99358.47;;;17.86;43.53
30730;BME280;17476;48.458;7.928;2023-06-14T01:23:25;99352.03;;;17.93;43.02
30730;BME280;17476;48.458;7.928;2023-06-14T01:25:58;99355.50;;;17.94;43.14
30730;BME280;17476;48.458;7.928;2023-06-14T01:28:24;99358.03;;;18.00;42.87
30730;BME280;17476;48.458;7.928;2023-06-14T01:30:53;99357.00;;;18.01;42.69
30730;BME280;17476;48.458;7.928;2023-06-14T01:33:26;99364.38;;;17.99;42.77
30730;BME280;17476;48.458;7.928;2023-06-14T01:35:53;99361.97;;;17.98;42.97
30730;BME280;17476;48.458;7.928;2023-06-14T01:38:24;99358.94;;;17.94;43.00
30730;BME280;17476;48.458;7.928;2023-06-14T01:40:54;99357.56;;;17.92;42.80
30730;BME280;17476;48.458;7.928;2023-06-14T01:43:21;99351.09;;;17.88;43.24
30730;BME280;17476;48.458;7.928;2023-06-14T01:45:48;99364.31;;;17.88;43.55
30730;BME280;17476;48.458;7.928;2023-06-14T01:48:16;99367.16;;;17.74;44.39
30730;BME280;17476;48.458;7.928;2023-06-14T01:50:42;99368.69;;;17.64;44.92
30730;BME280;17476;48.458;7.928;2023-06-14T01:53:09;99377.91;;;17.25;45.83
30730;BME280;17476;48.458;7.928;2023-06-14T01:55:35;99369.16;;;17.06;46.54
30730;BME280;17476;48.458;7.928;2023-06-14T01:58:04;99369.84;;;17.01;47.58
30730;BME280;17476;48.458;7.928;2023-06-14T02:00:30;99365.06;;;16.91;47.53
30730;BME280;17476;48.458;7.928;2023-06-14T02:02:56;99373.13;;;16.97;47.90
30730;BME280;17476;48.458;7.928;2023-06-14T02:05:22;99370.50;;;16.97;47.55
30730;BME280;17476;48.458;7.928;2023-06-14T02:07:48;99372.91;;;16.98;47.59
30730;BME280;17476;48.458;7.928;2023-06-14T02:10:14;99363.88;;;17.06;47.03
30730;BME280;17476;48.458;7.928;2023-06-14T02:12:41;99364.19;;;16.98;46.58
30730;BME280;17476;48.458;7.928;2023-06-14T02:15:07;99366.25;;;16.96;46.63
30730;BME280;17476;48.458;7.928;2023-06-14T02:17:33;99365.38;;;17.02;46.46
30730;BME280;17476;48.458;7.928;2023-06-14T02:20:00;99370.06;;;17.18;46.05
30730;BME280;17476;48.458;7.928;2023-06-14T02:22:26;99368.16;;;17.25;45.99
30730;BME280;17476;48.458;7.928;2023-06-14T02:24:52;99368.53;;;17.10;46.17
30730;BME280;17476;48.458;7.928;2023-06-14T02:27:18;99372.41;;;16.89;46.57
30730;BME280;17476;48.458;7.928;2023-06-14T02:29:44;99368.69;;;16.72;47.06
30730;BME280;17476;48.458;7.928;2023-06-14T02:32:10;99358.50;;;16.76;47.51
30730;BME280;17476;48.458;7.928;2023-06-14T02:34:36;99365.84;;;16.74;47.50
30730;BME280;17476;48.458;7.928;2023-06-14T02:37:02;99364.16;;;16.79;47.22
30730;BME280;17476;48.458;7.928;2023-06-14T02:39:29;99372.09;;;16.98;46.84
30730;BME280;17476;48.458;7.928;2023-06-14T02:41:55;99368.16;;;16.88;46.97
30730;BME280;17476;48.458;7.928;2023-06-14T02:44:25;99369.25;;;16.81;47.01
30730;BME280;17476;48.458;7.928;2023-06-14T02:46:54;99369.19;;;16.87;47.19
30730;BME280;17476;48.458;7.928;2023-06-14T02:49:22;99368.38;;;16.87;47.04
30730;BME280;17476;48.458;7.928;2023-06-14T02:51:48;99371.59;;;16.89;47.05
30730;BME280;17476;48.458;7.928;2023-06-14T02:54:14;99366.16;;;16.84;47.62
30730;BME280;17476;48.458;7.928;2023-06-14T02:56:39;99369.53;;;16.66;47.34
30730;BME280;17476;48.458;7.928;2023-06-14T02:59:07;99368.09;;;16.70;47.82
30730;BME280;17476;48.458;7.928;2023-06-14T03:01:33;99372.06;;;16.79;47.11
30730;BME280;17476;48.458;7.928;2023-06-14T03:04:07;99369.38;;;16.61;47.40
30730;BME280;17476;48.458;7.928;2023-06-14T03:06:33;99369.75;;;16.64;47.32
30730;BME280;17476;48.458;7.928;2023-06-14T03:09:00;99380.28;;;16.46;47.64
30730;BME280;17476;48.458;7.928;2023-06-14T03:11:30;99381.13;;;16.40;47.79
30730;BME280;17476;48.458;7.928;2023-06-14T03:13:56;99380.00;;;16.54;47.34
30730;BME280;17476;48.458;7.928;2023-06-14T03:16:22;99386.03;;;16.61;47.16
30730;BME280;17476;48.458;7.928;2023-06-14T03:18:53;99379.47;;;16.71;46.79
30730;BME280;17476;48.458;7.928;2023-06-14T03:21:19;99387.75;;;16.49;47.44
30730;BME280;17476;48.458;7.928;2023-06-14T03:23:47;99392.41;;;16.54;47.75
30730;BME280;17476;48.458;7.928;2023-06-14T03:26:13;99398.38;;;16.68;47.56
30730;BME280;17476;48.458;7.928;2023-06-14T03:28:42;99406.91;;;16.70;46.86
30730;BME280;17476;48.458;7.928;2023-06-14T03:31:08;99397.75;;;16.72;47.01
30730;BME280;17476;48.458;7.928;2023-06-14T03:33:34;99407.31;;;16.73;46.35
30730;BME280;17476;48.458;7.928;2023-06-14T03:36:02;99406.47;;;16.73;46.24
30730;BME280;17476;48.458;7.928;2023-06-14T03:38:28;99414.19;;;16.74;46.37
30730;BME280;17476;48.458;7.928;2023-06-14T03:40:54;99408.69;;;16.76;46.14
30730;BME280;17476;48.458;7.928;2023-06-14T03:43:20;99409.28;;;16.78;46.35
30730;BME280;17476;48.458;7.928;2023-06-14T03:45:46;99409.22;;;16.84;45.84
30730;BME280;17476;48.458;7.928;2023-06-14T03:48:12;99418.63;;;16.80;46.19
30730;BME280;17476;48.458;7.928;2023-06-14T03:50:38;99422.25;;;16.79;46.19
30730;BME280;17476;48.458;7.928;2023-06-14T03:53:06;99424.75;;;16.74;46.45
30730;BME280;17476;48.458;7.928;2023-06-14T03:55:32;99426.16;;;16.77;46.76
30730;BME280;17476;48.458;7.928;2023-06-14T03:57:59;99426.16;;;16.77;47.70
30730;BME280;17476;48.458;7.928;2023-06-14T04:00:25;99425.34;;;16.76;48.88
30730;BME280;17476;48.458;7.928;2023-06-14T04:02:51;99429.59;;;16.77;49.44
30730;BME280;17476;48.458;7.928;2023-06-14T04:05:17;99431.59;;;16.82;48.93
30730;BME280;17476;48.458;7.928;2023-06-14T04:07:47;99433.84;;;16.78;49.69
30730;BME280;17476;48.458;7.928;2023-06-14T04:10:15;99439.13;;;16.78;50.02
30730;BME280;17476;48.458;7.928;2023-06-14T04:12:42;99438.09;;;16.79;50.18
30730;BME280;17476;48.458;7.928;2023-06-14T04:15:09;99446.81;;;16.80;50.23
30730;BME280;17476;48.458;7.928;2023-06-14T04:17:36;99454.75;;;16.80;50.67
30730;BME280;17476;48.458;7.928;2023-06-14T04:20:03;99453.94;;;16.79;51.02
30730;BME280;17476;48.458;7.928;2023-06-14T04:22:32;99460.59;;;16.88;50.59
30730;BME280;17476;48.458;7.928;2023-06-14T04:24:59;99468.69;;;16.94;50.48
30730;BME280;17476;48.458;7.928;2023-06-14T04:27:26;99467.84;;;16.93;50.95
30730;BME280;17476;48.458;7.928;2023-06-14T04:29:54;99469.03;;;16.97;51.05
30730;BME280;17476;48.458;7.928;2023-06-14T04:32:28;99467.78;;;17.00;51.37
30730;BME280;17476;48.458;7.928;2023-06-14T04:35:08;99484.25;;;17.02;51.37
30730;BME280;17476;48.458;7.928;2023-06-14T04:37:34;99483.81;;;17.05;51.22
30730;BME280;17476;48.458;7.928;2023-06-14T04:40:00;99483.38;;;17.08;51.08
30730;BME280;17476;48.458;7.928;2023-06-14T04:42:26;99478.69;;;17.10;51.41
30730;BME280;17476;48.458;7.928;2023-06-14T04:44:57;99480.88;;;17.13;51.32
30730;BME280;17476;48.458;7.928;2023-06-14T04:47:23;99486.78;;;17.15;51.72
30730;BME280;17476;48.458;7.928;2023-06-14T04:49:57;99482.25;;;17.22;51.54
30730;BME280;17476;48.458;7.928;2023-06-14T04:52:23;99477.69;;;17.29;50.84
30730;BME280;17476;48.458;7.928;2023-06-14T04:54:52;99485.78;;;17.34;51.40
30730;BME280;17476;48.458;7.928;2023-06-14T04:57:19;99485.13;;;17.39;50.91
30730;BME280;17476;48.458;7.928;2023-06-14T04:59:48;99488.38;;;17.41;51.44
30730;BME280;17476;48.458;7.928;2023-06-14T05:02:14;99482.97;;;17.47;50.82
30730;BME280;17476;48.458;7.928;2023-06-14T05:04:40;99489.31;;;17.46;51.31
30730;BME280;17476;48.458;7.928;2023-06-14T05:07:11;99492.69;;;17.54;50.59
30730;BME280;17476;48.458;7.928;2023-06-14T05:09:37;99487.78;;;17.57;50.74
30730;BME280;17476;48.458;7.928;2023-06-14T05:12:04;99484.25;;;17.63;50.80
30730;BME280;17476;48.458;7.928;2023-06-14T05:14:30;99486.63;;;17.71;50.38
30730;BME280;17476;48.458;7.928;2023-06-14T05:16:56;99494.34;;;17.73;50.40
30730;BME280;17476;48.458;7.928;2023-06-14T05:19:22;99493.38;;;17.86;49.84
30730;BME280;17476;48.458;7.928;2023-06-14T05:21:48;99492.13;;;17.70;49.33
30730;BME280;17476;48.458;7.928;2023-06-14T05:24:15;99489.47;;;17.70;49.46
30730;BME280;17476;48.458;7.928;2023-06-14T05:26:42;99491.47;;;17.74;49.34
30730;BME280;17476;48.458;7.928;2023-06-14T05:29:08;99492.06;;;17.77;49.46
30730;BME280;17476;48.458;7.928;2023-06-14T05:31:34;99492.72;;;17.90;48.71
30730;BME280;17476;48.458;7.928;2023-06-14T05:34:00;99493.22;;;17.99;48.89
30730;BME280;17476;48.458;7.928;2023-06-14T05:36:25;99500.34;;;18.28;48.04
30730;BME280;17476;48.458;7.928;2023-06-14T05:38:54;99496.00;;;18.64;46.88
30730;BME280;17476;48.458;7.928;2023-06-14T05:41:28;99498.22;;;18.67;45.93
30730;BME280;17476;48.458;7.928;2023-06-14T05:43:55;99499.59;;;18.40;46.88
30730;BME280;17476;48.458;7.928;2023-06-14T05:46:22;99502.09;;;18.35;46.33
30730;BME280;17476;48.458;7.928;2023-06-14T05:48:51;99504.56;;;18.36;46.57
30730;BME280;17476;48.458;7.928;2023-06-14T05:51:17;99503.53;;;18.37;47.17
30730;BME280;17476;48.458;7.928;2023-06-14T05:53:48;99500.94;;;18.61;46.77
30730;BME280;17476;48.458;7.928;2023-06-14T05:56:15;99513.47;;;18.84;46.83
30730;BME280;17476;48.458;7.928;2023-06-14T05:58:43;99506.69;;;19.23;46.40
30730;BME280;17476;48.458;7.928;2023-06-14T06:01:09;99510.06;;;19.65;45.48
30730;BME280;17476;48.458;7.928;2023-06-14T06:03:35;99507.97;;;20.07;44.38
30730;BME280;17476;48.458;7.928;2023-06-14T06:06:01;99510.38;;;20.49;43.34
30730;BME280;17476;48.458;7.928;2023-06-14T06:08:28;99514.25;;;20.30;42.38
30730;BME280;17476;48.458;7.928;2023-06-14T06:10:55;99512.19;;;19.56;44.03
30730;BME280;17476;48.458;7.928;2023-06-14T06:13:22;99517.91;;;19.60;43.62
30730;BME280;17476;48.458;7.928;2023-06-14T06:15:48;99518.50;;;19.90;44.54
30730;BME280;17476;48.458;7.928;2023-06-14T06:18:14;99522.19;;;20.01;43.08
30730;BME280;17476;48.458;7.928;2023-06-14T06:20:40;99519.41;;;20.36;43.39
30730;BME280;17476;48.458;7.928;2023-06-14T06:23:05;99517.03;;;20.80;42.99
30730;BME280;17476;48.458;7.928;2023-06-14T06:25:33;99517.88;;;21.19;42.01
30730;BME280;17476;48.458;7.928;2023-06-14T06:27:59;99523.22;;;21.36;40.30
30730;BME280;17476;48.458;7.928;2023-06-14T06:30:25;99518.47;;;21.38;41.20
30730;BME280;17476;48.458;7.928;2023-06-14T06:32:51;99512.94;;;21.84;40.76
30730;BME280;17476;48.458;7.928;2023-06-14T06:35:18;99521.44;;;22.24;40.54
30730;BME280;17476;48.458;7.928;2023-06-14T06:37:44;99526.25;;;22.54;40.01
30730;BME280;17476;48.458;7.928;2023-06-14T06:40:10;99530.19;;;22.74;40.17
30730;BME280;17476;48.458;7.928;2023-06-14T06:42:36;99527.75;;;22.99;40.00
30730;BME280;17476;48.458;7.928;2023-06-14T06:45:03;99517.56;;;23.28;38.95
30730;BME280;17476;48.458;7.928;2023-06-14T06:47:29;99531.78;;;23.39;39.19
30730;BME280;17476;48.458;7.928;2023-06-14T06:49:55;99531.41;;;23.62;39.17
30730;BME280;17476;48.458;7.928;2023-06-14T06:52:21;99538.75;;;23.87;39.11
30730;BME280;17476;48.458;7.928;2023-06-14T06:54:47;99533.97;;;24.00;37.69
30730;BME280;17476;48.458;7.928;2023-06-14T06:57:14;99535.91;;;24.24;38.11
30730;BME280;17476;48.458;7.928;2023-06-14T06:59:40;99531.47;;;24.40;37.58
30730;BME280;17476;48.458;7.928;2023-06-14T07:02:06;99542.16;;;24.40;37.08
30730;BME280;17476;48.458;7.928;2023-06-14T07:04:32;99551.38;;;24.07;37.00
30730;BME280;17476;48.458;7.928;2023-06-14T07:06:58;99547.97;;;23.69;37.89
30730;BME280;17476;48.458;7.928;2023-06-14T07:09:24;99545.19;;;23.96;38.68
30730;BME280;17476;48.458;7.928;2023-06-14T07:11:50;99544.31;;;24.54;37.59
30730;BME280;17476;48.458;7.928;2023-06-14T07:14:16;99544.59;;;24.98;37.14
30730;BME280;17476;48.458;7.928;2023-06-14T07:16:42;99547.56;;;25.32;35.72
30730;BME280;17476;48.458;7.928;2023-06-14T07:19:09;99542.16;;;25.52;36.44
30730;BME280;17476;48.458;7.928;2023-06-14T07:21:35;99543.44;;;25.85;35.59
30730;BME280;17476;48.458;7.928;2023-06-14T07:24:05;99550.25;;;26.22;35.26
30730;BME280;17476;48.458;7.928;2023-06-14T07:26:32;99542.38;;;26.41;34.07
30730;BME280;17476;48.458;7.928;2023-06-14T07:28:58;99543.72;;;26.38;34.16
30730;BME280;17476;48.458;7.928;2023-06-14T07:31:24;99547.88;;;26.10;34.32
30730;BME280;17476;48.458;7.928;2023-06-14T07:33:50;99546.28;;;26.09;34.33
30730;BME280;17476;48.458;7.928;2023-06-14T07:36:15;99549.25;;;26.03;34.97
30730;BME280;17476;48.458;7.928;2023-06-14T07:38:43;99548.19;;;26.04;34.25
30730;BME280;17476;48.458;7.928;2023-06-14T07:41:09;99549.25;;;26.08;34.57
30730;BME280;17476;48.458;7.928;2023-06-14T07:43:35;99548.06;;;26.29;34.92
30730;BME280;17476;48.458;7.928;2023-06-14T07:46:01;99546.63;;;26.86;33.91
30730;BME280;17476;48.458;7.928;2023-06-14T07:48:28;99558.59;;;27.33;31.90
30730;BME280;17476;48.458;7.928;2023-06-14T07:50:53;99547.06;;;27.86;31.92
30730;BME280;17476;48.458;7.928;2023-06-14T07:53:19;99548.09;;;28.09;31.18
30730;BME280;17476;48.458;7.928;2023-06-14T07:55:45;99554.84;;;28.49;31.07
30730;BME280;17476;48.458;7.928;2023-06-14T07:58:13;99548.84;;;28.90;30.75
30730;BME280;17476;48.458;7.928;2023-06-14T08:00:38;99546.06;;;29.27;30.27
30730;BME280;17476;48.458;7.928;2023-06-14T08:03:04;99548.09;;;29.49;30.01
30730;BME280;17476;48.458;7.928;2023-06-14T08:05:30;99548.72;;;29.74;30.00
30730;BME280;17476;48.458;7.928;2023-06-14T08:07:56;99548.78;;;30.24;29.45
30730;BME280;17476;48.458;7.928;2023-06-14T08:10:23;99538.44;;;30.39;28.35
30730;BME280;17476;48.458;7.928;2023-06-14T08:12:49;99547.34;;;30.40;27.88
30730;BME280;17476;48.458;7.928;2023-06-14T08:15:18;99537.53;;;30.44;27.61
30730;BME280;17476;48.458;7.928;2023-06-14T08:17:44;99530.13;;;30.50;28.07
30730;BME280;17476;48.458;7.928;2023-06-14T08:20:11;99531.09;;;30.90;28.04
30730;BME280;17476;48.458;7.928;2023-06-14T08:22:38;99535.22;;;31.18;27.62
30730;BME280;17476;48.458;7.928;2023-06-14T08:25:05;99535.06;;;31.55;27.05
30730;BME280;17476;48.458;7.928;2023-06-14T08:27:32;99525.47;;;31.79;26.80
30730;BME280;17476;48.458;7.928;2023-06-14T08:29:58;99527.91;;;32.07;26.14
30730;BME280;17476;48.458;7.928;2023-06-14T08:32:24;99523.34;;;32.42;25.78
30730;BME280;17476;48.458;7.928;2023-06-14T08:34:50;99531.31;;;32.56;25.38
30730;BME280;17476;48.458;7.928;2023-06-14T08:37:16;99531.00;;;32.40;25.44
30730;BME280;17476;48.458;7.928;2023-06-14T08:39:42;99531.31;;;32.39;25.51
30730;BME280;17476;48.458;7.928;2023-06-14T08:42:09;99525.88;;;32.65;25.47
30730;BME280;17476;48.458;7.928;2023-06-14T08:44:36;99530.63;;;32.85;25.60
30730;BME280;17476;48.458;7.928;2023-06-14T08:47:02;99534.94;;;32.95;25.44
30730;BME280;17476;48.458;7.928;2023-06-14T08:49:30;99531.44;;;32.85;24.76
30730;BME280;17476;48.458;7.928;2023-06-14T08:52:00;99529.19;;;32.96;25.77
30730;BME280;17476;48.458;7.928;2023-06-14T08:54:29;99531.84;;;33.22;25.57
30730;BME280;17476;48.458;7.928;2023-06-14T08:56:59;99528.13;;;33.44;24.87
30730;BME280;17476;48.458;7.928;2023-06-14T08:59:26;99526.06;;;33.71;24.73
30730;BME280;17476;48.458;7.928;2023-06-14T09:01:53;99528.13;;;34.03;24.44
30730;BME280;17476;48.458;7.928;2023-06-14T09:04:21;99523.06;;;34.43;23.94
30730;BME280;17476;48.458;7.928;2023-06-14T09:06:56;99524.13;;;34.51;23.66
30730;BME280;17476;48.458;7.928;2023-06-14T09:09:22;99525.34;;;34.54;23.78
30730;BME280;17476;48.458;7.928;2023-06-14T09:11:54;99520.47;;;34.80;23.73
30730;BME280;17476;48.458;7.928;2023-06-14T09:14:23;99525.22;;;35.04;23.65
30730;BME280;17476;48.458;7.928;2023-06-14T09:16:54;99522.44;;;35.37;22.56
30730;BME280;17476;48.458;7.928;2023-06-14T09:19:26;99522.13;;;35.51;22.65
30730;BME280;17476;48.458;7.928;2023-06-14T09:21:52;99533.09;;;35.67;22.45
30730;BME280;17476;48.458;7.928;2023-06-14T09:24:37;99532.66;;;35.77;22.10
30730;BME280;17476;48.458;7.928;2023-06-14T09:27:26;99535.16;;;35.58;21.06
30730;BME280;17476;48.458;7.928;2023-06-14T09:30:12;99523.34;;;35.41;21.94
30730;BME280;17476;48.458;7.928;2023-06-14T09:32:59;99530.28;;;35.51;22.28
30730;BME280;17476;48.458;7.928;2023-06-14T09:35:46;99531.88;;;35.64;21.54
30730;BME280;17476;48.458;7.928;2023-06-14T09:38:36;99528.66;;;35.99;21.60
30730;BME280;17476;48.458;7.928;2023-06-14T09:41:39;99530.34;;;36.03;21.64
30730;BME280;17476;48.458;7.928;2023-06-14T09:44:26;99531.84;;;36.01;21.62
30730;BME280;17476;48.458;7.928;2023-06-14T09:47:16;99534.63;;;36.17;21.69
30730;BME280;17476;48.458;7.928;2023-06-14T09:50:02;99529.00;;;36.37;21.42
30730;BME280;17476;48.458;7.928;2023-06-14T09:52:52;99534.34;;;36.74;21.43
30730;BME280;17476;48.458;7.928;2023-06-14T09:55:42;99532.81;;;37.05;21.00
30730;BME280;17476;48.458;7.928;2023-06-14T09:58:28;99524.47;;;37.29;20.73
30730;BME280;17476;48.458;7.928;2023-06-14T10:01:16;99527.75;;;37.19;20.77
30730;BME280;17476;48.458;7.928;2023-06-14T10:04:06;99529.75;;;37.22;20.99
30730;BME280;17476;48.458;7.928;2023-06-14T10:06:53;99515.28;;;37.69;20.59
30730;BME280;17476;48.458;7.928;2023-06-14T10:09:39;99523.50;;;38.04;19.77
30730;BME280;17476;48.458;7.928;2023-06-14T10:12:30;99520.13;;;38.11;19.89
30730;BME280;17476;48.458;7.928;2023-06-14T10:24:45;99511.53;;;37.93;18.01
30730;BME280;17476;48.458;7.928;2023-06-14T10:27:31;99518.09;;;37.72;18.95
30730;BME280;17476;48.458;7.928;2023-06-14T10:30:17;99513.34;;;37.69;18.56
30730;BME280;17476;48.458;7.928;2023-06-14T10:33:07;99497.25;;;37.80;18.18
30730;BME280;17476;48.458;7.928;2023-06-14T10:35:34;99501.44;;;37.78;18.34
30730;BME280;17476;48.458;7.928;2023-06-14T10:38:11;99496.69;;;37.90;17.77
30730;BME280;17476;48.458;7.928;2023-06-14T10:40:37;99497.72;;;38.02;17.41
30730;BME280;17476;48.458;7.928;2023-06-14T10:43:22;99504.53;;;38.11;18.14
30730;BME280;17476;48.458;7.928;2023-06-14T10:46:17;99507.78;;;38.56;17.29
30730;BME280;17476;48.458;7.928;2023-06-14T10:48:44;99509.13;;;38.85;17.48
30730;BME280;17476;48.458;7.928;2023-06-14T10:51:18;99501.34;;;38.87;17.77
30730;BME280;17476;48.458;7.928;2023-06-14T10:53:50;99509.38;;;38.76;17.49
30730;BME280;17476;48.458;7.928;2023-06-14T10:56:29;99508.63;;;38.60;17.12
30730;BME280;17476;48.458;7.928;2023-06-14T10:58:57;99505.91;;;38.60;17.83
30730;BME280;17476;48.458;7.928;2023-06-14T11:01:38;99506.13;;;38.93;17.64
30730;BME280;17476;48.458;7.928;2023-06-14T11:04:11;99510.63;;;39.05;17.02
30730;BME280;17476;48.458;7.928;2023-06-14T11:06:49;99505.06;;;38.98;16.77
30730;BME280;17476;48.458;7.928;2023-06-14T11:12:12;99497.66;;;39.48;17.06
30730;BME280;17476;48.458;7.928;2023-06-14T11:14:39;99493.56;;;39.61;17.22
30730;BME280;17476;48.458;7.928;2023-06-14T11:17:05;99494.97;;;39.51;16.34
30730;BME280;17476;48.458;7.928;2023-06-14T11:19:31;99500.44;;;39.25;16.87
30730;BME280;17476;48.458;7.928;2023-06-14T11:21:57;99490.81;;;39.35;16.94
30730;BME280;17476;48.458;7.928;2023-06-14T11:24:24;99487.72;;;39.36;16.83
30730;BME280;17476;48.458;7.928;2023-06-14T11:26:50;99494.31;;;39.58;16.21
30730;BME280;17476;48.458;7.928;2023-06-14T11:29:16;99494.66;;;39.83;16.40
30730;BME280;17476;48.458;7.928;2023-06-14T11:31:46;99492.94;;;40.01;15.96
30730;BME280;17476;48.458;7.928;2023-06-14T11:34:12;99486.16;;;40.18;16.36
30730;BME280;17476;48.458;7.928;2023-06-14T11:36:38;99488.66;;;40.34;15.51
30730;BME280;17476;48.458;7.928;2023-06-14T11:39:06;99494.56;;;39.76;15.66
30730;BME280;17476;48.458;7.928;2023-06-14T11:41:43;99488.53;;;39.63;15.87
30730;BME280;17476;48.458;7.928;2023-06-14T11:44:11;99492.56;;;39.46;16.72
30730;BME280;17476;48.458;7.928;2023-06-14T11:46:37;99490.44;;;39.59;16.34
30730;BME280;17476;48.458;7.928;2023-06-14T11:49:04;99491.69;;;39.65;16.17
30730;BME280;17476;48.458;7.928;2023-06-14T11:51:34;99483.44;;;39.92;15.86
30730;BME280;17476;48.458;7.928;2023-06-14T11:54:02;99479.63;;;40.00;15.41
30730;BME280;17476;48.458;7.928;2023-06-14T11:56:29;99484.53;;;39.87;15.79
30730;BME280;17476;48.458;7.928;2023-06-14T11:58:55;99468.97;;;39.91;16.00
30730;BME280;17476;48.458;7.928;2023-06-14T12:01:23;99475.69;;;39.97;15.81
30730;BME280;17476;48.458;7.928;2023-06-14T12:03:54;99478.00;;;39.95;15.65
30730;BME280;17476;48.458;7.928;2023-06-14T12:06:28;99481.97;;;40.01;15.88
30730;BME280;17476;48.458;7.928;2023-06-14T12:08:56;99478.16;;;40.06;15.48
30730;BME280;17476;48.458;7.928;2023-06-14T12:11:22;99474.81;;;40.20;15.63
30730;BME280;17476;48.458;7.928;2023-06-14T12:13:49;99476.91;;;40.33;15.10
30730;BME280;17476;48.458;7.928;2023-06-14T12:16:15;99478.44;;;39.97;15.47
30730;BME280;17476;48.458;7.928;2023-06-14T12:18:41;99485.97;;;40.04;15.37
30730;BME280;17476;48.458;7.928;2023-06-14T12:21:09;99478.06;;;39.99;15.53
30730;BME280;17476;48.458;7.928;2023-06-14T12:23:44;99478.84;;;39.99;15.34
30730;BME280;17476;48.458;7.928;2023-06-14T12:26:17;99482.41;;;40.03;15.84
30730;BME280;17476;48.458;7.928;2023-06-14T12:28:47;99481.72;;;39.80;15.48
30730;BME280;17476;48.458;7.928;2023-06-14T12:31:15;99471.59;;;39.57;16.22
30730;BME280;17476;48.458;7.928;2023-06-14T12:33:42;99482.78;;;39.72;15.96
30730;BME280;17476;48.458;7.928;2023-06-14T12:36:09;99480.06;;;39.72;16.26
30730;BME280;17476;48.458;7.928;2023-06-14T12:38:36;99479.81;;;39.57;16.15
30730;BME280;17476;48.458;7.928;2023-06-14T12:41:03;99482.34;;;39.70;15.31
30730;BME280;17476;48.458;7.928;2023-06-14T12:43:29;99478.47;;;39.71;15.64
30730;BME280;17476;48.458;7.928;2023-06-14T12:45:55;99483.69;;;39.83;16.07
30730;BME280;17476;48.458;7.928;2023-06-14T12:48:21;99477.91;;;39.88;15.29
30730;BME280;17476;48.458;7.928;2023-06-14T12:50:48;99470.06;;;40.17;15.59
30730;BME280;17476;48.458;7.928;2023-06-14T12:53:14;99486.38;;;40.06;15.60
30730;BME280;17476;48.458;7.928;2023-06-14T12:55:40;99477.13;;;40.18;16.14
30730;BME280;17476;48.458;7.928;2023-06-14T12:58:06;99478.28;;;40.17;15.58
30730;BME280;17476;48.458;7.928;2023-06-14T13:00:35;99479.56;;;40.26;16.13
30730;BME280;17476;48.458;7.928;2023-06-14T13:03:01;99480.47;;;40.37;16.18
30730;BME280;17476;48.458;7.928;2023-06-14T13:05:27;99480.75;;;40.29;15.53
30730;BME280;17476;48.458;7.928;2023-06-14T13:07:53;99480.38;;;40.27;16.06
30730;BME280;17476;48.458;7.928;2023-06-14T13:10:19;99486.22;;;40.25;16.16
30730;BME280;17476;48.458;7.928;2023-06-14T13:12:45;99484.59;;;40.21;16.57
30730;BME280;17476;48.458;7.928;2023-06-14T13:15:11;99488.19;;;40.28;16.25
30730;BME280;17476;48.458;7.928;2023-06-14T13:17:36;99488.59;;;40.27;16.21
30730;BME280;17476;48.458;7.928;2023-06-14T13:20:08;99487.56;;;40.08;15.40
30730;BME280;17476;48.458;7.928;2023-06-14T13:22:35;99489.47;;;39.74;15.92